AirNav   Air Wisconsin Up To $57,000 Bonus
 
 474 users online  

17A Trigger Gap Airport
Berryville, Arkansas, USA

GOING TO BERRYVILLE?


FAA INFORMATION EFFECTIVE 14 JULY 2022

Location

FAA Identifier: 17A
Lat/Long: 36-19-41.7000N 093-37-19.9700W
36-19.695000N 093-37.332833W
36.3282500,-93.6222139
(estimated)
Elevation: 1650 ft. / 503 m (estimated)
From city: 5 miles SW of BERRYVILLE, AR
Time zone: UTC -5 (UTC -6 during Standard Time)
Zip code: 72616

Airport Operations

Airport use: Open to the public
Activation date: 09/2017
Control tower: no
ARTCC: MEMPHIS CENTER
FSS: JONESBORO FLIGHT SERVICE STATION
NOTAMs facility: JBR (NOTAM-D service not available)
Attendance: UNATTND
Segmented circle: no

Airport Communications

CTAF: 122.9

Nearby radio navigation aids

VOR radial/distance  VOR name  Freq  Var
HROr268/19.8HARRISON VOR/DME112.5004E
RZCr075/24.6RAZORBACK VORTAC116.4004E

Airport Services

Runway Information

Runway 10/28

Dimensions: 3000 x 75 ft. / 914 x 23 m
Surface: turf, in good condition
RUNWAY 10  RUNWAY 28
Latitude: 36-19.759667N36-19.630333N
Longitude: 093-37.627667W093-37.037833W
Elevation: 1608.0 ft.1650.0 ft.
Traffic pattern: rightleft
Runway heading: 105 true285 true
Obstructions: 23 ft. tree, 250 ft. from runway, 55 ft. left of centerline, 10:1 slope to clear56 ft. trees, 240 ft. from runway, 4:1 slope to clear

Airport Ownership and Management from official FAA records

Ownership: Publicly-owned
Owner: RECREATIONAL AVIATION FOUNDATION
1711 W COLLEGE STREET
BOZEMAN, MT 59715
Phone 406-582-1723
Manager: HARPER GOODWIN
P.O. BOX 791
EUREKA SPRINGS, AR 72632
Phone 817-938-3334

Airport Operational Statistics

Aircraft operations: avg 58/month *
100% transient general aviation
* for 12-month period ending 28 February 2021

Additional Remarks

FOR CD CTC RAZORBACK APCH 479-649-2416, WHEN APCH CLSD CTC MEMPHIS ARTCC AT 901-368-8453/8449.

Instrument Procedures

There are no published instrument procedures at 17A.

Some nearby airports with instrument procedures:

4M1 - Carroll County Airport (3 nm N)
H34 - Huntsville Municipal Airport (16 nm SW)
KHRO - Boone County Airport (23 nm E)
KROG - Rogers Executive Airport - Carter Field (24 nm W)
KBBG - Branson Airport (24 nm NE)
 
Loc | Ops | Rwys | IFR | FBO | Links
Com | Nav | Svcs | Stats | Notes
Aerial photo
WARNING: Photo may not be current or correct
Aerial photo of 17A (Trigger Gap Airport)
Photo by JD Lawson
Photo taken 21-Jan-2017
looking southeast.

Do you have a better or more recent aerial photo of Trigger Gap Airport that you would like to share? If so, please send us your photo.

 
Airport distance calculator
Flying to Trigger Gap Airport? Find the distance to fly.

From to 17A

Sunrise and sunset
Times for 11-Aug-2022
 Local
(UTC-5)
 Zulu
(UTC)
Morning civil twilight06:0211:02
Sunrise06:3011:30
Sunset20:0901:09
Evening civil twilight20:3701:37

Current date and time
Zulu (UTC)  11-Aug-2022 08:30:47
Local (UTC-5)  11-Aug-2022 03:30:47
 
METAR
KROG 
22nm W 
110758Z AUTO 09007KT 10SM CLR 22/17 A3014 RMK AO2 SLP189 T02220172 $
KHRO 
23nm E 
110801Z AUTO 00000KT 10SM BKN019 22/18 A3015 RMK AO2 T02220178
KBBG 
24nm NE 
110815Z AUTO 00000KT 10SM CLR 19/18 A3015 RMK AO2
KFWB 
25nm NE 
110815Z AUTO 07004KT 10SM CLR 21/17 A3014 RMK AO2
KASG 
26nm W 
110148Z 04006KT 10SM CLR 28/21 A3011
KVBT 
29nm W 
110756Z AUTO 08005KT 10SM CLR 22/18 A3014 RMK AO2 SLP195 T02220178
KFYV 
32nm SW 
110753Z AUTO 00000KT 8SM CLR 19/18 A3012 RMK AO2 SLP183 T01940183
KXNA 
33nm W 
110753Z AUTO 00000KT 10SM CLR 21/18 A3013 RMK AO2 SLP185 T02060178
KHFJ 
39nm NW 
110815Z AUTO 08005KT 10SM CLR 20/17 A3014 RMK AO2
KSLG 
42nm W 
110756Z AUTO 09003KT 10SM CLR 21/18 A3012 RMK AO2 SLP186 T02110183
TAF
KROG 
22nm W 
110520Z 1106/1206 04005KT P6SM FEW050 FM111400 08006KT P6SM SKC
KHRO 
23nm E 
110536Z 1106/1206 VRB04KT P6SM SCT025 BKN050 TEMPO 1110/1114 5SM BR BKN025 FM111500 07006KT P6SM SCT250 FM120000 VRB03KT P6SM SKC
KBBG 
24nm NE 
110520Z 1106/1206 07003KT P6SM SKC FM111800 07005KT P6SM SKC
NOTAMs
Click for the latest NOTAMs
NOTAMs are issued by the DoD/FAA and will open in a separate window not controlled by AirNav.

 

 
 

Would you like to see your business listed on this page?

 If your business provides an interesting product or service to pilots, flight crews, aircraft, or users of the Trigger Gap Airport, you should consider listing it here.  To start the listing process, click on the button below
 
Add a business
 

Other Pages about Trigger Gap Airport

Update a link
 
Copyright © AirNav, LLC. All rights reserved. Privacy Policy  Contact